createdAt,value
2016-07-23T00:00:53.975Z,0
2016-07-23T00:01:53.980Z,0
2016-07-23T00:02:53.980Z,0
2016-07-23T00:03:53.980Z,0
2016-07-23T00:04:53.980Z,0
2016-07-23T00:05:53.984Z,0
2016-07-23T00:06:53.983Z,0
2016-07-23T00:07:53.984Z,0
2016-07-23T00:08:53.992Z,0
2016-07-23T00:09:53.274Z,0
2016-07-23T00:10:53.993Z,0
2016-07-23T00:11:53.992Z,0
2016-07-23T00:12:54.004Z,0
2016-07-23T00:13:53.992Z,0
2016-07-23T00:14:54.000Z,0
2016-07-23T00:15:53.996Z,0
2016-07-23T00:16:53.996Z,0
2016-07-23T00:17:54.001Z,0
2016-07-23T00:18:54.000Z,0
2016-07-23T00:19:54.004Z,0
2016-07-23T00:20:54.005Z,0
2016-07-23T00:21:54.008Z,0
2016-07-23T00:22:54.008Z,0
2016-07-23T00:23:54.008Z,0
2016-07-23T00:24:54.012Z,0
2016-07-23T00:25:54.023Z,0
2016-07-23T00:26:54.008Z,0
2016-07-23T00:27:54.020Z,0
2016-07-23T00:28:54.013Z,0
2016-07-23T00:29:54.020Z,0
2016-07-23T00:30:54.021Z,0
2016-07-23T00:31:54.029Z,0
2016-07-23T00:32:54.026Z,0
2016-07-23T00:33:54.025Z,0
2016-07-23T00:34:54.034Z,0
2016-07-23T00:35:54.033Z,0
2016-07-23T00:36:54.036Z,0
2016-07-23T00:37:54.033Z,0
2016-07-23T00:38:54.034Z,0
2016-07-23T00:39:54.037Z,0
2016-07-23T00:40:54.037Z,0
2016-07-23T00:41:54.034Z,0
2016-07-23T00:42:54.033Z,0
2016-07-23T00:43:54.089Z,0
2016-07-23T00:44:54.042Z,0
2016-07-23T00:45:54.041Z,0
2016-07-23T00:46:54.045Z,0
2016-07-23T00:47:54.046Z,0
2016-07-23T00:48:54.050Z,0
2016-07-23T00:49:54.051Z,0
2016-07-23T00:50:54.050Z,0
2016-07-23T00:51:54.062Z,0
2016-07-23T00:52:54.053Z,0
2016-07-23T00:53:54.054Z,0
2016-07-23T00:54:54.053Z,0
2016-07-23T00:55:54.058Z,0
2016-07-23T00:56:54.054Z,0
2016-07-23T00:57:54.058Z,0
2016-07-23T00:58:53.343Z,0
2016-07-23T00:59:54.063Z,0
2016-07-23T01:00:54.065Z,0
2016-07-23T01:01:54.070Z,0
2016-07-23T01:02:54.067Z,0
2016-07-23T01:03:54.070Z,0
2016-07-23T01:04:54.066Z,0
2016-07-23T01:05:53.354Z,0
2016-07-23T01:06:54.075Z,0
2016-07-23T01:07:53.355Z,0
2016-07-23T01:08:54.079Z,0
2016-07-23T01:09:54.078Z,0
2016-07-23T01:10:54.078Z,0
2016-07-23T01:11:54.083Z,0
2016-07-23T01:12:54.083Z,0
2016-07-23T01:13:54.092Z,0
2016-07-23T01:14:54.087Z,0
2016-07-23T01:15:54.099Z,0
2016-07-23T01:16:54.092Z,0
2016-07-23T01:17:54.091Z,0
2016-07-23T01:18:54.099Z,0
2016-07-23T01:19:54.096Z,0
2016-07-23T01:20:54.107Z,0
2016-07-23T01:21:54.096Z,0
2016-07-23T01:22:54.095Z,0
2016-07-23T01:23:54.100Z,0
2016-07-23T01:24:54.099Z,0
2016-07-23T01:25:54.108Z,0
2016-07-23T01:26:54.104Z,0
2016-07-23T01:27:54.104Z,0
2016-07-23T01:28:54.108Z,0
2016-07-23T01:29:54.107Z,0
2016-07-23T01:30:54.124Z,0
2016-07-23T01:31:54.107Z,0
2016-07-23T01:32:54.112Z,0
2016-07-23T01:33:54.116Z,0
2016-07-23T01:34:54.115Z,0
2016-07-23T01:35:54.115Z,0
2016-07-23T01:36:54.120Z,0
2016-07-23T01:37:54.120Z,0
2016-07-23T01:38:54.132Z,0
2016-07-23T01:39:54.124Z,0
2016-07-23T01:40:54.124Z,0
2016-07-23T01:41:54.129Z,0
2016-07-23T01:42:54.128Z,0
2016-07-23T01:43:54.128Z,0
2016-07-23T01:44:54.133Z,0
2016-07-23T01:45:54.132Z,0
2016-07-23T01:46:54.133Z,0
2016-07-23T01:47:54.136Z,0
2016-07-23T01:48:54.153Z,0
2016-07-23T01:49:55.085Z,0
2016-07-23T01:50:54.277Z,0
2016-07-23T01:51:54.141Z,0
2016-07-23T01:52:54.145Z,0
2016-07-23T01:53:54.145Z,0
2016-07-23T01:54:54.144Z,0
2016-07-23T01:55:54.145Z,0
2016-07-23T01:56:54.148Z,0
2016-07-23T01:57:54.152Z,0
2016-07-23T01:58:54.153Z,0
2016-07-23T01:59:54.153Z,0
2016-07-23T02:00:54.154Z,0
2016-07-23T02:01:54.158Z,0
2016-07-23T02:02:54.158Z,0
2016-07-23T02:03:54.158Z,0
2016-07-23T02:04:54.168Z,0
2016-07-23T02:05:54.161Z,0
2016-07-23T02:06:54.158Z,0
2016-07-23T02:07:54.165Z,0
2016-07-23T02:08:54.166Z,0
2016-07-23T02:09:54.166Z,0
2016-07-23T02:10:54.181Z,0
2016-07-23T02:11:54.170Z,0
2016-07-23T02:12:54.170Z,0
2016-07-23T02:13:54.174Z,0
2016-07-23T02:14:54.173Z,0
2016-07-23T02:15:54.174Z,0
2016-07-23T02:16:54.174Z,0
2016-07-23T02:17:54.182Z,0
2016-07-23T02:18:54.178Z,0
2016-07-23T02:19:54.185Z,0
2016-07-23T02:20:54.191Z,0
2016-07-23T02:21:54.182Z,0
2016-07-23T02:22:54.186Z,0
2016-07-23T02:23:54.187Z,0
2016-07-23T02:24:54.185Z,0
2016-07-23T02:25:54.191Z,0
2016-07-23T02:26:54.190Z,0
2016-07-23T02:27:54.190Z,0
2016-07-23T02:28:54.194Z,0
2016-07-23T02:29:54.193Z,0
2016-07-23T02:30:54.194Z,0
2016-07-23T02:31:54.198Z,0
2016-07-23T02:32:54.198Z,0
2016-07-23T02:33:54.197Z,0
2016-07-23T02:34:54.202Z,0
2016-07-23T02:35:54.205Z,0
2016-07-23T02:36:54.202Z,0
2016-07-23T02:37:54.205Z,0
2016-07-23T02:38:54.206Z,0
2016-07-23T02:39:54.205Z,0
2016-07-23T02:40:54.214Z,0
2016-07-23T02:41:54.217Z,0
2016-07-23T02:42:54.209Z,0
2016-07-23T02:43:54.313Z,0
2016-07-23T02:44:54.213Z,0
2016-07-23T02:45:54.213Z,0
2016-07-23T02:46:54.225Z,0
2016-07-23T02:47:54.217Z,0
2016-07-23T02:48:54.217Z,0
2016-07-23T02:49:54.217Z,0
2016-07-23T02:50:53.502Z,0
2016-07-23T02:51:54.226Z,0
2016-07-23T02:52:54.225Z,0
2016-07-23T02:53:54.234Z,0
2016-07-23T02:54:54.233Z,0
2016-07-23T02:55:54.229Z,0
2016-07-23T02:56:54.233Z,0
2016-07-23T02:57:54.234Z,0
2016-07-23T02:58:54.233Z,0
2016-07-23T02:59:54.233Z,0
2016-07-23T03:00:54.244Z,0
2016-07-23T03:01:54.237Z,0
2016-07-23T03:02:54.241Z,0
2016-07-23T03:03:54.241Z,0
2016-07-23T03:04:54.245Z,0
2016-07-23T03:05:54.250Z,0
2016-07-23T03:06:54.246Z,0
2016-07-23T03:07:54.245Z,0
2016-07-23T03:08:54.262Z,0
2016-07-23T03:09:54.245Z,0
2016-07-23T03:10:54.249Z,0
2016-07-23T03:11:54.255Z,0
2016-07-23T03:12:54.253Z,0
2016-07-23T03:13:54.254Z,0
2016-07-23T03:14:53.549Z,0
2016-07-23T03:15:54.257Z,0
2016-07-23T03:16:54.258Z,0
2016-07-23T03:17:54.258Z,0
2016-07-23T03:18:54.266Z,4
2016-07-23T03:19:54.262Z,4
2016-07-23T03:20:54.273Z,4
2016-07-23T03:21:54.264Z,4
2016-07-23T03:22:54.266Z,4
2016-07-23T03:23:54.262Z,4
2016-07-23T03:24:54.266Z,8
2016-07-23T03:25:54.282Z,4
2016-07-23T03:26:54.270Z,8
2016-07-23T03:27:54.274Z,8
2016-07-23T03:28:54.278Z,12
2016-07-23T03:29:54.274Z,12
2016-07-23T03:30:54.287Z,12
2016-07-23T03:31:54.274Z,16
2016-07-23T03:32:54.278Z,16
2016-07-23T03:33:54.281Z,20
2016-07-23T03:34:54.282Z,24
2016-07-23T03:35:54.283Z,24
2016-07-23T03:36:54.287Z,28
2016-07-23T03:37:54.286Z,32
2016-07-23T03:38:54.287Z,32
2016-07-23T03:39:54.291Z,36
2016-07-23T03:40:54.290Z,36
2016-07-23T03:41:54.291Z,36
2016-07-23T03:42:53.575Z,40
2016-07-23T03:43:54.295Z,44
2016-07-23T03:44:54.298Z,48
2016-07-23T03:45:54.298Z,52
2016-07-23T03:46:54.298Z,52
2016-07-23T03:47:54.299Z,56
2016-07-23T03:48:54.303Z,64
2016-07-23T03:49:54.306Z,68
2016-07-23T03:50:54.315Z,76
2016-07-23T03:51:54.310Z,88
2016-07-23T03:52:54.311Z,92
2016-07-23T03:53:54.312Z,104
2016-07-23T03:54:54.310Z,116
2016-07-23T03:55:54.315Z,128
2016-07-23T03:56:54.319Z,144
2016-07-23T03:57:54.316Z,160
2016-07-23T03:58:54.307Z,176
2016-07-23T03:59:53.596Z,196
2016-07-23T04:00:54.319Z,208
2016-07-23T04:01:54.319Z,220
2016-07-23T04:02:54.318Z,224
2016-07-23T04:03:54.322Z,228
2016-07-23T04:04:54.323Z,236
2016-07-23T04:05:54.322Z,256
2016-07-23T04:06:54.327Z,296
2016-07-23T04:07:54.334Z,348
2016-07-23T04:08:54.327Z,392
2016-07-23T04:09:54.331Z,404
2016-07-23T04:10:54.332Z,372
2016-07-23T04:11:54.331Z,364
2016-07-23T04:12:54.331Z,412
2016-07-23T04:13:54.336Z,448
2016-07-23T04:14:54.335Z,496
2016-07-23T04:15:54.339Z,588
2016-07-23T04:16:54.339Z,688
2016-07-23T04:17:54.357Z,752
2016-07-23T04:18:54.355Z,756
2016-07-23T04:19:54.343Z,736
2016-07-23T04:20:54.350Z,704
2016-07-23T04:21:54.348Z,700
2016-07-23T04:22:53.633Z,716
2016-07-23T04:23:54.347Z,744
2016-07-23T04:24:54.364Z,748
2016-07-23T04:25:54.352Z,756
2016-07-23T04:26:54.353Z,724
2016-07-23T04:27:54.357Z,672
2016-07-23T04:28:54.367Z,600
2016-07-23T04:29:54.352Z,544
2016-07-23T04:30:54.364Z,512
2016-07-23T04:31:54.361Z,540
2016-07-23T04:32:54.365Z,612
2016-07-23T04:33:54.365Z,712
2016-07-23T04:34:54.361Z,816
2016-07-23T04:35:54.372Z,852
2016-07-23T04:36:53.649Z,820
2016-07-23T04:37:54.372Z,712
2016-07-23T04:38:54.381Z,628
2016-07-23T04:39:54.373Z,568
2016-07-23T04:40:54.373Z,548
2016-07-23T04:41:54.377Z,556
2016-07-23T04:42:54.376Z,568
2016-07-23T04:43:54.432Z,588
2016-07-23T04:44:54.389Z,608
2016-07-23T04:45:54.376Z,628
2016-07-23T04:46:54.397Z,616
2016-07-23T04:47:54.388Z,528
2016-07-23T04:48:54.384Z,436
2016-07-23T04:49:54.404Z,368
2016-07-23T04:50:54.389Z,348
2016-07-23T04:51:54.392Z,356
2016-07-23T04:52:54.393Z,352
2016-07-23T04:53:54.392Z,336
2016-07-23T04:54:54.397Z,368
2016-07-23T04:55:54.401Z,400
2016-07-23T04:56:54.396Z,448
2016-07-23T04:57:54.401Z,556
2016-07-23T04:58:54.400Z,676
2016-07-23T04:59:54.405Z,892
2016-07-23T05:00:54.405Z,1148
2016-07-23T05:01:54.405Z,1392
2016-07-23T05:02:54.404Z,1624
2016-07-23T05:03:54.408Z,1860
2016-07-23T05:04:54.409Z,2120
2016-07-23T05:05:54.405Z,2332
2016-07-23T05:06:54.433Z,2596
2016-07-23T05:07:54.422Z,2848
2016-07-23T05:08:54.420Z,2928
2016-07-23T05:09:54.417Z,2876
2016-07-23T05:10:54.420Z,2948
2016-07-23T05:11:54.440Z,3032
2016-07-23T05:12:54.418Z,2952
2016-07-23T05:13:54.421Z,2824
2016-07-23T05:14:54.426Z,2872
2016-07-23T05:15:54.425Z,2616
2016-07-23T05:16:54.429Z,2516
2016-07-23T05:17:54.430Z,2420
2016-07-23T05:18:54.445Z,2404
2016-07-23T05:19:54.429Z,2432
2016-07-23T05:20:54.434Z,2548
2016-07-23T05:21:54.434Z,2736
2016-07-23T05:22:54.441Z,2848
2016-07-23T05:23:54.446Z,2872
2016-07-23T05:24:54.441Z,2840
2016-07-23T05:25:54.441Z,2860
2016-07-23T05:26:54.450Z,2896
2016-07-23T05:27:54.446Z,2896
2016-07-23T05:28:54.459Z,2796
2016-07-23T05:29:53.733Z,2852
2016-07-23T05:30:54.463Z,3124
2016-07-23T05:31:54.454Z,3332
2016-07-23T05:32:54.458Z,3264
2016-07-23T05:33:54.459Z,3048
2016-07-23T05:34:54.463Z,3028
2016-07-23T05:35:54.458Z,3108
2016-07-23T05:36:54.462Z,3288
2016-07-23T05:37:54.466Z,3536
2016-07-23T05:38:54.466Z,3580
2016-07-23T05:39:54.470Z,3516
2016-07-23T05:40:54.470Z,3336
2016-07-23T05:41:54.479Z,3388
2016-07-23T05:42:54.474Z,3704
2016-07-23T05:43:54.478Z,4008
2016-07-23T05:44:54.479Z,4064
2016-07-23T05:45:54.483Z,3948
2016-07-23T05:46:54.494Z,3900
2016-07-23T05:47:54.499Z,4096
2016-07-23T05:48:54.487Z,4220
2016-07-23T05:49:54.503Z,4616
2016-07-23T05:50:54.495Z,5172
2016-07-23T05:51:54.495Z,5548
2016-07-23T05:52:54.499Z,6348
2016-07-23T05:53:54.503Z,5928
2016-07-23T05:54:54.500Z,6308
2016-07-23T05:55:54.504Z,6748
2016-07-23T05:56:54.507Z,6912
2016-07-23T05:57:54.507Z,6612
2016-07-23T05:58:54.507Z,6564
2016-07-23T05:59:53.798Z,6696
2016-07-23T06:00:54.516Z,6944
2016-07-23T06:01:54.524Z,7936
2016-07-23T06:02:54.524Z,7480
2016-07-23T06:03:54.523Z,7552
2016-07-23T06:04:54.528Z,7776
2016-07-23T06:05:54.527Z,7620
2016-07-23T06:06:54.536Z,7972
2016-07-23T06:07:54.551Z,9600
2016-07-23T06:08:54.555Z,9636
2016-07-23T06:09:54.540Z,27136
2016-07-23T06:10:54.544Z,22464
2016-07-23T06:11:54.543Z,21216
2016-07-23T06:12:54.548Z,30752
2016-07-23T06:13:54.547Z,31744
2016-07-23T06:14:54.552Z,31648
2016-07-23T06:15:54.555Z,29312
2016-07-23T06:16:54.564Z,25568
2016-07-23T06:17:54.563Z,13300
2016-07-23T06:18:54.564Z,9604
2016-07-23T06:19:54.568Z,7964
2016-07-23T06:20:54.572Z,7220
2016-07-23T06:21:54.576Z,7116
2016-07-23T06:22:54.585Z,7472
2016-07-23T06:23:54.591Z,8188
2016-07-23T06:24:54.589Z,9892
2016-07-23T06:25:54.592Z,23392
2016-07-23T06:26:54.596Z,30464
2016-07-23T06:27:54.612Z,14748
2016-07-23T06:28:54.604Z,16340
2016-07-23T06:29:54.620Z,20704
2016-07-23T06:30:54.604Z,17808
2016-07-23T06:31:54.617Z,30784
2016-07-23T06:32:54.615Z,28800
2016-07-23T06:33:54.625Z,27872
2016-07-23T06:34:54.628Z,26592
2016-07-23T06:35:54.633Z,31072
2016-07-23T06:36:54.640Z,31808
2016-07-23T06:37:54.646Z,31808
2016-07-23T06:38:54.644Z,31616
2016-07-23T06:39:54.654Z,30880
2016-07-23T06:40:54.668Z,29024
2016-07-23T06:41:54.669Z,29376
2016-07-23T06:42:54.669Z,29408
2016-07-23T06:43:54.777Z,28224
2016-07-23T06:44:54.680Z,22816
2016-07-23T06:45:54.685Z,26720
2016-07-23T06:46:54.688Z,21728
2016-07-23T06:47:54.696Z,19040
2016-07-23T06:48:54.705Z,18528
2016-07-23T06:49:54.701Z,14680
2016-07-23T06:50:53.997Z,12940
2016-07-23T06:51:54.720Z,14620
2016-07-23T06:52:54.729Z,15288
2016-07-23T06:53:54.733Z,27424
2016-07-23T06:54:54.754Z,22688
2016-07-23T06:55:54.746Z,11608
2016-07-23T06:56:54.753Z,12720
2016-07-23T06:57:54.774Z,12620
2016-07-23T06:58:54.765Z,12580
2016-07-23T06:59:54.774Z,18016
2016-07-23T07:00:54.773Z,30816
2016-07-23T07:01:54.786Z,36224
2016-07-23T07:02:54.785Z,32384
2016-07-23T07:03:54.799Z,11088
2016-07-23T07:04:54.801Z,10904
2016-07-23T07:05:54.822Z,10376
2016-07-23T07:06:54.814Z,9868
2016-07-23T07:07:54.831Z,9636
2016-07-23T07:08:54.840Z,14756
2016-07-23T07:09:54.839Z,11032
2016-07-23T07:10:54.843Z,7560
2016-07-23T07:11:54.850Z,7280
2016-07-23T07:12:54.855Z,8224
2016-07-23T07:13:54.858Z,10184
2016-07-23T07:14:54.867Z,11928
2016-07-23T07:15:54.878Z,18464
2016-07-23T07:16:54.893Z,42048
2016-07-23T07:17:54.887Z,42048
2016-07-23T07:18:54.899Z,42016
2016-07-23T07:19:54.898Z,37408
2016-07-23T07:20:54.908Z,42368
2016-07-23T07:21:54.911Z,22656
2016-07-23T07:22:54.915Z,22784
2016-07-23T07:23:54.924Z,19712
2016-07-23T07:24:53.492Z,17132
2016-07-23T07:25:54.940Z,16248
2016-07-23T07:26:54.948Z,14392
2016-07-23T07:27:54.951Z,11516
2016-07-23T07:28:54.958Z,8744
2016-07-23T07:29:54.964Z,7164
2016-07-23T07:30:54.975Z,6536
2016-07-23T07:31:54.979Z,6680
2016-07-23T07:32:54.983Z,7532
2016-07-23T07:33:54.992Z,8888
2016-07-23T07:34:54.999Z,10200
2016-07-23T07:35:54.294Z,9676
2016-07-23T07:36:55.011Z,9180
2016-07-23T07:37:55.015Z,8532
2016-07-23T07:38:55.024Z,7884
2016-07-23T07:39:55.044Z,7340
2016-07-23T07:40:55.036Z,7112
2016-07-23T07:41:55.044Z,7872
2016-07-23T07:42:55.052Z,8304
2016-07-23T07:43:55.103Z,9104
2016-07-23T07:44:55.060Z,11064
2016-07-23T07:45:55.076Z,13968
2016-07-23T07:46:55.080Z,20064
2016-07-23T07:47:55.076Z,27200
2016-07-23T07:48:55.084Z,49216
2016-07-23T07:49:55.093Z,18880
2016-07-23T07:50:55.097Z,21280
2016-07-23T07:51:55.097Z,22624
2016-07-23T07:52:55.124Z,24320
2016-07-23T07:53:55.112Z,35296
2016-07-23T07:54:55.126Z,37472
2016-07-23T07:55:55.125Z,46688
2016-07-23T07:56:55.132Z,47264
2016-07-23T07:57:55.141Z,48704
2016-07-23T07:58:55.144Z,47200
2016-07-23T07:59:55.153Z,45440
2016-07-23T08:00:55.165Z,47264
2016-07-23T08:01:55.174Z,49856
2016-07-23T08:02:55.174Z,48576
2016-07-23T08:03:55.181Z,45696
2016-07-23T08:04:55.189Z,42368
2016-07-23T08:05:55.202Z,17268
2016-07-23T08:06:55.209Z,34624
2016-07-23T08:07:54.492Z,46432
2016-07-23T08:08:55.220Z,16924
2016-07-23T08:09:55.228Z,22208
2016-07-23T08:10:55.239Z,12664
2016-07-23T08:11:55.240Z,10776
2016-07-23T08:12:55.252Z,9884
2016-07-23T08:13:55.260Z,10868
2016-07-23T08:14:55.264Z,28160
2016-07-23T08:15:55.275Z,42976
2016-07-23T08:16:55.284Z,46112
2016-07-23T08:17:55.291Z,45472
2016-07-23T08:18:55.303Z,46656
2016-07-23T08:19:55.307Z,48000
2016-07-23T08:20:55.316Z,44448
2016-07-23T08:21:55.323Z,46048
2016-07-23T08:22:55.332Z,41696
2016-07-23T08:23:55.339Z,41984
2016-07-23T08:24:55.347Z,42656
2016-07-23T08:25:55.355Z,46848
2016-07-23T08:26:55.363Z,44608
2016-07-23T08:27:55.375Z,44160
2016-07-23T08:28:55.383Z,45280
2016-07-23T08:29:55.391Z,45344
2016-07-23T08:30:55.400Z,43360
2016-07-23T08:31:55.407Z,42784
2016-07-23T08:32:55.420Z,43520
2016-07-23T08:33:55.428Z,43040
2016-07-23T08:34:55.435Z,41952
2016-07-23T08:35:55.444Z,41312
2016-07-23T08:36:55.455Z,42432
2016-07-23T08:37:55.471Z,43008
2016-07-23T08:38:55.475Z,42752
2016-07-23T08:39:55.484Z,40960
2016-07-23T08:40:55.496Z,39040
2016-07-23T08:41:55.503Z,41824
2016-07-23T08:42:55.512Z,40960
2016-07-23T08:43:55.516Z,40896
2016-07-23T08:44:55.535Z,42272
2016-07-23T08:45:55.540Z,37344
2016-07-23T08:46:55.556Z,24288
2016-07-23T08:47:55.560Z,31296
2016-07-23T08:48:55.572Z,21760
2016-07-23T08:49:55.582Z,12940
2016-07-23T08:50:55.588Z,12324
2016-07-23T08:51:55.600Z,10940
2016-07-23T08:52:55.608Z,11668
2016-07-23T08:53:55.617Z,13968
2016-07-23T08:54:55.633Z,12444
2016-07-23T08:55:55.653Z,12260
2016-07-23T08:56:55.644Z,12476
2016-07-23T08:57:54.937Z,11968
2016-07-23T08:58:55.670Z,11352
2016-07-23T08:59:55.673Z,11260
2016-07-23T09:00:55.684Z,10460
2016-07-23T09:01:55.693Z,11300
2016-07-23T09:02:55.701Z,10568
2016-07-23T09:03:55.713Z,9876
2016-07-23T09:04:55.720Z,9704
2016-07-23T09:05:55.728Z,9168
2016-07-23T09:06:55.737Z,9596
2016-07-23T09:07:55.748Z,10748
2016-07-23T09:08:55.757Z,10792
2016-07-23T09:09:55.764Z,8924
2016-07-23T09:10:55.773Z,8184
2016-07-23T09:11:55.781Z,7888
2016-07-23T09:12:55.801Z,7820
2016-07-23T09:13:55.801Z,7804
2016-07-23T09:14:55.809Z,7828
2016-07-23T09:15:55.817Z,8544
2016-07-23T09:16:55.105Z,8004
2016-07-23T09:17:55.833Z,8448
2016-07-23T09:18:55.853Z,8680
2016-07-23T09:19:55.849Z,8712
2016-07-23T09:20:55.857Z,8720
2016-07-23T09:21:55.865Z,9280
2016-07-23T09:22:55.872Z,9708
2016-07-23T09:23:55.889Z,10016
2016-07-23T09:24:55.889Z,10204
2016-07-23T09:25:55.897Z,10296
2016-07-23T09:26:55.905Z,10316
2016-07-23T09:27:55.909Z,9424
2016-07-23T09:28:55.917Z,9936
2016-07-23T09:29:55.933Z,9844
2016-07-23T09:30:55.933Z,10148
2016-07-23T09:31:55.947Z,9452
2016-07-23T09:32:55.950Z,8868
2016-07-23T09:33:55.954Z,8476
2016-07-23T09:34:55.961Z,8164
2016-07-23T09:35:55.970Z,7992
2016-07-23T09:36:55.978Z,7320
2016-07-23T09:37:55.985Z,7424
2016-07-23T09:38:55.995Z,7724
2016-07-23T09:39:56.010Z,7460
2016-07-23T09:40:56.006Z,7044
2016-07-23T09:41:56.014Z,7868
2016-07-23T09:42:56.022Z,9004
2016-07-23T09:43:56.126Z,9168
2016-07-23T09:44:56.033Z,8836
2016-07-23T09:45:56.042Z,8100
2016-07-23T09:46:56.053Z,7216
2016-07-23T09:47:56.058Z,6596
2016-07-23T09:48:56.062Z,6016
2016-07-23T09:49:56.066Z,5412
2016-07-23T09:50:56.082Z,5180
2016-07-23T09:51:56.082Z,5272
2016-07-23T09:52:56.085Z,5272
2016-07-23T09:53:56.095Z,5312
2016-07-23T09:54:56.102Z,5184
2016-07-23T09:55:56.106Z,5140
2016-07-23T09:56:56.118Z,4996
2016-07-23T09:57:56.126Z,4772
2016-07-23T09:58:56.127Z,4656
2016-07-23T09:59:56.135Z,4700
2016-07-23T10:00:56.158Z,936
2016-07-23T10:01:56.147Z,96
2016-07-23T10:02:56.163Z,100
2016-07-23T10:03:56.159Z,100
2016-07-23T10:04:55.442Z,104
2016-07-23T10:05:56.175Z,104
2016-07-23T10:06:56.187Z,108
2016-07-23T10:07:56.183Z,108
2016-07-23T10:08:56.187Z,108
2016-07-23T10:09:56.195Z,112
2016-07-23T10:10:56.194Z,116
2016-07-23T10:11:56.207Z,124
2016-07-23T10:12:56.210Z,132
2016-07-23T10:13:56.219Z,160
2016-07-23T10:14:56.222Z,176
2016-07-23T10:15:56.227Z,164
2016-07-23T10:16:56.234Z,160
2016-07-23T10:17:56.239Z,164
2016-07-23T10:18:56.246Z,180
2016-07-23T10:19:56.252Z,184
2016-07-23T10:20:56.255Z,176
2016-07-23T10:21:56.259Z,156
2016-07-23T10:22:56.267Z,176
2016-07-23T10:23:56.271Z,184
2016-07-23T10:24:56.278Z,180
2016-07-23T10:25:56.287Z,156
2016-07-23T10:26:56.282Z,188
2016-07-23T10:27:56.291Z,208
2016-07-23T10:28:56.299Z,200
2016-07-23T10:29:56.303Z,200
2016-07-23T10:30:56.306Z,200
2016-07-23T10:31:56.327Z,196
2016-07-23T10:32:56.323Z,188
2016-07-23T10:33:56.324Z,180
2016-07-23T10:34:56.327Z,184
2016-07-23T10:35:56.332Z,172
2016-07-23T10:36:56.339Z,168
2016-07-23T10:37:56.347Z,160
2016-07-23T10:38:56.359Z,160
2016-07-23T10:39:56.356Z,152
2016-07-23T10:40:56.359Z,148
2016-07-23T10:41:56.367Z,152
2016-07-23T10:42:56.368Z,148
2016-07-23T10:43:56.372Z,144
2016-07-23T10:44:56.376Z,140
2016-07-23T10:45:56.381Z,132
2016-07-23T10:46:56.393Z,128
2016-07-23T10:47:56.392Z,120
2016-07-23T10:48:56.396Z,120
2016-07-23T10:49:55.693Z,120
2016-07-23T10:50:56.405Z,120
2016-07-23T10:51:56.408Z,120
2016-07-23T10:52:56.417Z,116
2016-07-23T10:53:56.420Z,116
2016-07-23T10:54:55.704Z,116
2016-07-23T10:55:56.432Z,116
2016-07-23T10:56:56.433Z,116
2016-07-23T10:57:56.441Z,116
2016-07-23T10:58:56.440Z,124
2016-07-23T10:59:56.448Z,120
2016-07-23T11:00:56.453Z,124
2016-07-23T11:01:56.457Z,124
2016-07-23T11:02:56.460Z,124
2016-07-23T11:03:56.465Z,124
2016-07-23T11:04:56.469Z,120
2016-07-23T11:05:56.473Z,120
2016-07-23T11:06:56.477Z,120
2016-07-23T11:07:56.481Z,124
2016-07-23T11:08:56.485Z,120
2016-07-23T11:09:56.489Z,124
2016-07-23T11:10:56.493Z,124
2016-07-23T11:11:56.501Z,124
2016-07-23T11:12:56.501Z,124
2016-07-23T11:13:56.510Z,124
2016-07-23T11:14:56.517Z,124
2016-07-23T11:15:56.525Z,128
2016-07-23T11:16:56.522Z,128
2016-07-23T11:17:56.524Z,124
2016-07-23T11:18:56.532Z,124
2016-07-23T11:19:56.533Z,124
2016-07-23T11:20:56.537Z,124
2016-07-23T11:21:56.546Z,124
2016-07-23T11:22:56.545Z,124
2016-07-23T11:23:56.550Z,128
2016-07-23T11:24:56.553Z,128
2016-07-23T11:25:56.556Z,128
2016-07-23T11:26:56.561Z,124
2016-07-23T11:27:56.565Z,128
2016-07-23T11:28:56.568Z,132
2016-07-23T11:29:56.574Z,128
2016-07-23T11:30:56.578Z,128
2016-07-23T11:31:56.581Z,128
2016-07-23T11:32:56.585Z,128
2016-07-23T11:33:56.590Z,124
2016-07-23T11:34:56.594Z,128
2016-07-23T11:35:56.617Z,124
2016-07-23T11:36:56.609Z,124
2016-07-23T11:37:56.609Z,120
2016-07-23T11:38:56.614Z,120
2016-07-23T11:39:56.609Z,120
2016-07-23T11:40:56.625Z,120
2016-07-23T11:41:56.625Z,120
2016-07-23T11:42:56.629Z,120
2016-07-23T11:43:56.681Z,120
2016-07-23T11:44:56.633Z,120
2016-07-23T11:45:56.638Z,120
2016-07-23T11:46:56.648Z,120
2016-07-23T11:47:56.645Z,116
2016-07-23T11:48:56.660Z,120
2016-07-23T11:49:56.666Z,124
2016-07-23T11:50:56.653Z,120
2016-07-23T11:51:56.662Z,120
2016-07-23T11:52:56.666Z,120
2016-07-23T11:53:56.670Z,120
2016-07-23T11:54:56.673Z,120
2016-07-23T11:55:56.678Z,124
2016-07-23T11:56:56.686Z,124
2016-07-23T11:57:56.690Z,124
2016-07-23T11:58:56.690Z,124
2016-07-23T11:59:55.974Z,128
2016-07-23T12:00:56.697Z,124
2016-07-23T12:01:56.702Z,124
2016-07-23T12:02:56.706Z,124
2016-07-23T12:03:56.720Z,124
2016-07-23T12:04:56.714Z,120
2016-07-23T12:05:56.718Z,116
2016-07-23T12:06:56.721Z,120
2016-07-23T12:07:56.726Z,120
2016-07-23T12:08:56.729Z,116
2016-07-23T12:09:56.734Z,116
2016-07-23T12:10:56.737Z,120
2016-07-23T12:11:56.022Z,120
2016-07-23T12:12:56.742Z,120
2016-07-23T12:13:56.746Z,120
2016-07-23T12:14:56.750Z,124
2016-07-23T12:15:56.754Z,128
2016-07-23T12:16:56.758Z,124
2016-07-23T12:17:56.766Z,128
2016-07-23T12:18:56.047Z,132
2016-07-23T12:19:56.770Z,136
2016-07-23T12:20:56.773Z,140
2016-07-23T12:21:56.777Z,136
2016-07-23T12:22:56.791Z,140
2016-07-23T12:23:56.066Z,140
2016-07-23T12:24:56.793Z,140
2016-07-23T12:25:56.794Z,140
2016-07-23T12:26:56.799Z,144
2016-07-23T12:27:56.802Z,140
2016-07-23T12:28:56.814Z,140
2016-07-23T12:29:56.806Z,140
2016-07-23T12:30:56.810Z,140
2016-07-23T12:31:56.815Z,140
2016-07-23T12:32:56.818Z,140
2016-07-23T12:33:56.826Z,144
2016-07-23T12:34:56.831Z,140
2016-07-23T12:35:56.842Z,144
2016-07-23T12:36:56.846Z,140
2016-07-23T12:37:56.838Z,140
2016-07-23T12:38:56.847Z,136
2016-07-23T12:39:56.842Z,136
2016-07-23T12:40:56.846Z,140
2016-07-23T12:41:56.854Z,136
2016-07-23T12:42:56.854Z,140
2016-07-23T12:43:56.959Z,144
2016-07-23T12:44:56.864Z,140
2016-07-23T12:45:56.867Z,140
2016-07-23T12:46:56.871Z,136
2016-07-23T12:47:56.880Z,136
2016-07-23T12:48:56.880Z,136
2016-07-23T12:49:56.883Z,136
2016-07-23T12:50:56.888Z,140
2016-07-23T12:51:56.888Z,144
2016-07-23T12:52:56.892Z,144
2016-07-23T12:53:56.899Z,144
2016-07-23T12:54:56.900Z,144
2016-07-23T12:55:56.904Z,144
2016-07-23T12:56:56.907Z,144
2016-07-23T12:57:56.916Z,144
2016-07-23T12:58:56.912Z,140
2016-07-23T12:59:56.916Z,140
2016-07-23T13:00:56.919Z,136
2016-07-23T13:01:56.924Z,136
2016-07-23T13:02:56.928Z,140
2016-07-23T13:03:56.933Z,136
2016-07-23T13:04:56.220Z,136
2016-07-23T13:05:56.940Z,132
2016-07-23T13:06:56.944Z,132
2016-07-23T13:07:56.943Z,128
2016-07-23T13:08:56.948Z,132
2016-07-23T13:09:56.952Z,132
2016-07-23T13:10:56.956Z,128
2016-07-23T13:11:56.961Z,128
2016-07-23T13:12:56.968Z,128
2016-07-23T13:13:56.973Z,124
2016-07-23T13:14:56.972Z,124
2016-07-23T13:15:56.980Z,124
2016-07-23T13:16:56.979Z,124
2016-07-23T13:17:56.980Z,116
2016-07-23T13:18:56.984Z,120
2016-07-23T13:19:56.988Z,116
2016-07-23T13:20:56.993Z,116
2016-07-23T13:21:56.997Z,112
2016-07-23T13:22:57.001Z,116
2016-07-23T13:23:57.009Z,116
2016-07-23T13:24:57.008Z,116
2016-07-23T13:25:57.008Z,112
2016-07-23T13:26:57.017Z,112
2016-07-23T13:27:57.016Z,112
2016-07-23T13:28:57.024Z,108
2016-07-23T13:29:57.025Z,108
2016-07-23T13:30:57.032Z,108
2016-07-23T13:31:57.045Z,108
2016-07-23T13:32:57.032Z,104
2016-07-23T13:33:57.037Z,104
2016-07-23T13:34:57.047Z,104
2016-07-23T13:35:57.049Z,108
2016-07-23T13:36:57.044Z,108
2016-07-23T13:37:57.053Z,108
2016-07-23T13:38:57.057Z,104
2016-07-23T13:39:56.341Z,108
2016-07-23T13:40:57.061Z,108
2016-07-23T13:41:57.056Z,108
2016-07-23T13:42:57.073Z,104
2016-07-23T13:43:57.072Z,104
2016-07-23T13:44:57.072Z,104
2016-07-23T13:45:57.076Z,104